Rice Lake, WI

6:16 PM CST on February 08, 2016 (GMT -0600)
Cameron, WI North | | Change Station
CLOSE
Current Station
Personal Weather Station
Location: Cameron, WI
Elevation: 1102 ft
Nearby Weather Stations

Elev 1102 ft 45.42 °N, 91.74 °W | Updated 9 minutes ago

Snow
Snow
11.8 °F
Feels Like 3 °F
N
5.3
Wind Variable Wind from NE

Today
High -- | Low -- °F
--% Chance of Precip.
Yesterday
High -- | Low -- °F
Precip. -- in
Pressure 29.90 in
Visibility 2.5 miles
Clouds Mostly Cloudy 2700 ft
Overcast 3300 ft
Windchill 3 °F
Dew Point 8 °F
Humidity 85%
Rainfall 0.00 in
Snow Depth Not available.
7:19 AM 5:23 PM
New Moon, 0% visible
METAR KRPD 082355Z AUTO 31008G15KT 2 1/2SM -SN BKN027 OVC033 M11/M13 A2990 RMK AO2 T11061135 11093 21106
Pressure 29.90 in
Visibility 2.5 miles
Clouds Mostly Cloudy 2700 ft
Overcast 3300 ft
Windchill 3 °F
Dew Point 8 °F
Humidity 85%
Rainfall 0.00 in
Snow Depth Not available.
7:19 AM 5:23 PM
New Moon, 0% visible
METAR KRPD 082355Z AUTO 31008G15KT 2 1/2SM -SN BKN027 OVC033 M11/M13 A2990 RMK AO2 T11061135 11093 21106

10-Day Weather Forecast

Almanac

Astronomy

Feb. 08, 2016 Rise Set
Actual Time
Civil Twilight
Nautical Twilight
Astronomical Twilight
Moon
Length of Visible Light
Length of Day
Tomorrow will be .
, % of the Moon is Illuminated

Today's Extremes

State Highs State Lows

Community

WunderPhotos

Upload Photos

1,891,527 photos uploaded!

WunderBlog® & News

Nearby

Air Quality

  Air Quality AQ Index Pollutant
Not available.

Snow Depth

Station Depth Elevation

Earthquake Activity

City Distance Mag. Time & Date
Minimum magnitude displayed is 2.5.

Coastal Water Temperatures

Place Temperature

Stations

Nearby Weather Stations

Station Location Temp. Windchill Dew Point Humidity Wind Precip. Elev Updated Type
                   

Watches & Warnings

There are currently no watches in effect.